sensor_id;sensor_type;location;lat;lon;timestamp;pressure;altitude;pressure_sealevel;temperature;humidity
72308;BME280;60257;42.638;23.376;2023-11-18T00:00:19;93917.34;;;4.85;93.23
72308;BME280;60257;42.638;23.376;2023-11-18T00:02:45;93909.25;;;4.77;91.56
72308;BME280;60257;42.638;23.376;2023-11-18T00:05:11;93909.31;;;4.68;95.91
72308;BME280;60257;42.638;23.376;2023-11-18T00:07:37;93921.97;;;4.64;91.65
72308;BME280;60257;42.638;23.376;2023-11-18T00:10:03;93904.13;;;4.54;91.35
72308;BME280;60257;42.638;23.376;2023-11-18T00:12:29;93915.59;;;4.60;92.17
72308;BME280;60257;42.638;23.376;2023-11-18T00:14:55;93910.78;;;4.57;91.43
72308;BME280;60257;42.638;23.376;2023-11-18T00:17:20;93926.47;;;4.51;89.92
72308;BME280;60257;42.638;23.376;2023-11-18T00:19:46;93951.88;;;4.55;91.22
72308;BME280;60257;42.638;23.376;2023-11-18T00:22:12;93945.47;;;4.51;89.63
72308;BME280;60257;42.638;23.376;2023-11-18T00:24:38;93949.19;;;4.47;89.74
72308;BME280;60257;42.638;23.376;2023-11-18T00:27:04;93948.38;;;4.46;91.15
72308;BME280;60257;42.638;23.376;2023-11-18T00:29:34;93915.53;;;4.39;91.54
72308;BME280;60257;42.638;23.376;2023-11-18T00:32:03;93923.69;;;4.39;91.46
72308;BME280;60257;42.638;23.376;2023-11-18T00:34:29;93931.34;;;4.37;91.63
72308;BME280;60257;42.638;23.376;2023-11-18T00:36:55;93922.09;;;4.30;92.44
72308;BME280;60257;42.638;23.376;2023-11-18T00:39:27;93925.31;;;4.32;91.70
72308;BME280;60257;42.638;23.376;2023-11-18T00:41:53;93903.91;;;4.30;91.66
72308;BME280;60257;42.638;23.376;2023-11-18T00:44:18;93912.19;;;4.34;91.03
72308;BME280;60257;42.638;23.376;2023-11-18T00:46:44;93921.13;;;4.34;90.39
72308;BME280;60257;42.638;23.376;2023-11-18T00:49:09;93914.56;;;4.35;90.84
72308;BME280;60257;42.638;23.376;2023-11-18T00:51:37;93922.72;;;4.35;90.42
72308;BME280;60257;42.638;23.376;2023-11-18T00:54:03;93926.09;;;4.32;89.39
72308;BME280;60257;42.638;23.376;2023-11-18T00:56:31;93929.47;;;4.20;89.28
72308;BME280;60257;42.638;23.376;2023-11-18T00:58:57;93930.47;;;4.16;90.27
72308;BME280;60257;42.638;23.376;2023-11-18T01:01:22;93913.53;;;4.19;89.87
72308;BME280;60257;42.638;23.376;2023-11-18T01:03:47;93937.81;;;4.15;89.16
72308;BME280;60257;42.638;23.376;2023-11-18T01:06:13;93911.03;;;4.05;89.18
72308;BME280;60257;42.638;23.376;2023-11-18T01:08:47;93931.41;;;4.11;89.48
72308;BME280;60257;42.638;23.376;2023-11-18T01:11:16;93932.56;;;4.10;89.46
72308;BME280;60257;42.638;23.376;2023-11-18T01:13:45;93938.63;;;4.07;89.86
72308;BME280;60257;42.638;23.376;2023-11-18T01:16:10;93930.69;;;4.02;89.86
72308;BME280;60257;42.638;23.376;2023-11-18T01:18:36;93932.59;;;4.02;90.14
72308;BME280;60257;42.638;23.376;2023-11-18T01:21:01;93950.13;;;4.04;89.26
72308;BME280;60257;42.638;23.376;2023-11-18T01:23:27;93949.16;;;4.09;89.59
72308;BME280;60257;42.638;23.376;2023-11-18T01:25:53;93949.81;;;4.06;89.52
72308;BME280;60257;42.638;23.376;2023-11-18T01:28:18;93951.88;;;4.09;88.43
72308;BME280;60257;42.638;23.376;2023-11-18T01:30:44;93940.88;;;4.05;88.76
72308;BME280;60257;42.638;23.376;2023-11-18T01:33:10;93943.91;;;4.04;90.59
72308;BME280;60257;42.638;23.376;2023-11-18T01:35:36;93968.66;;;3.94;88.38
72308;BME280;60257;42.638;23.376;2023-11-18T01:38:01;93983.66;;;3.91;89.36
72308;BME280;60257;42.638;23.376;2023-11-18T01:40:27;93959.25;;;3.91;89.47
72308;BME280;60257;42.638;23.376;2023-11-18T01:42:55;93939.47;;;3.82;90.52
72308;BME280;60257;42.638;23.376;2023-11-18T01:45:21;93955.44;;;3.83;89.71
72308;BME280;60257;42.638;23.376;2023-11-18T01:47:47;93952.91;;;3.87;89.85
72308;BME280;60257;42.638;23.376;2023-11-18T01:50:16;93936.28;;;3.80;89.74
72308;BME280;60257;42.638;23.376;2023-11-18T01:52:42;93946.50;;;3.83;90.27
72308;BME280;60257;42.638;23.376;2023-11-18T01:55:12;93939.16;;;3.83;90.30
72308;BME280;60257;42.638;23.376;2023-11-18T01:57:38;93947.00;;;3.76;90.71
72308;BME280;60257;42.638;23.376;2023-11-18T02:00:05;93922.91;;;3.75;88.72
72308;BME280;60257;42.638;23.376;2023-11-18T02:02:32;93942.06;;;3.78;89.51
72308;BME280;60257;42.638;23.376;2023-11-18T02:04:59;93928.34;;;3.75;90.68
72308;BME280;60257;42.638;23.376;2023-11-18T02:07:27;93946.69;;;3.78;89.76
72308;BME280;60257;42.638;23.376;2023-11-18T02:09:54;93932.03;;;3.62;87.99
72308;BME280;60257;42.638;23.376;2023-11-18T02:15:05;93936.84;;;3.47;88.35
72308;BME280;60257;42.638;23.376;2023-11-18T02:17:37;93927.41;;;3.45;88.82
72308;BME280;60257;42.638;23.376;2023-11-18T02:20:05;93933.47;;;3.42;87.25
72308;BME280;60257;42.638;23.376;2023-11-18T02:22:41;93946.38;;;3.45;87.22
72308;BME280;60257;42.638;23.376;2023-11-18T02:25:09;93946.88;;;3.38;86.85
72308;BME280;60257;42.638;23.376;2023-11-18T02:27:37;93946.22;;;3.41;87.92
72308;BME280;60257;42.638;23.376;2023-11-18T02:30:04;93936.66;;;3.35;86.03
72308;BME280;60257;42.638;23.376;2023-11-18T02:33:07;93947.34;;;3.40;84.94
72308;BME280;60257;42.638;23.376;2023-11-18T02:35:48;93933.47;;;3.33;85.22
72308;BME280;60257;42.638;23.376;2023-11-18T02:38:21;93959.00;;;3.32;84.15
72308;BME280;60257;42.638;23.376;2023-11-18T02:40:51;93927.59;;;3.31;84.29
72308;BME280;60257;42.638;23.376;2023-11-18T02:43:23;93950.69;;;3.29;82.97
72308;BME280;60257;42.638;23.376;2023-11-18T02:45:50;93941.13;;;3.31;84.40
72308;BME280;60257;42.638;23.376;2023-11-18T02:48:16;93935.22;;;3.21;84.41
72308;BME280;60257;42.638;23.376;2023-11-18T02:50:43;93943.38;;;3.29;83.15
72308;BME280;60257;42.638;23.376;2023-11-18T02:53:08;93936.53;;;3.32;83.84
72308;BME280;60257;42.638;23.376;2023-11-18T02:55:35;93959.78;;;3.33;82.79
72308;BME280;60257;42.638;23.376;2023-11-18T02:58:00;93957.38;;;3.23;83.22
72308;BME280;60257;42.638;23.376;2023-11-18T03:00:27;93952.44;;;3.33;83.27
72308;BME280;60257;42.638;23.376;2023-11-18T03:02:54;93935.72;;;3.23;81.88
72308;BME280;60257;42.638;23.376;2023-11-18T03:05:20;93968.22;;;3.14;81.77
72308;BME280;60257;42.638;23.376;2023-11-18T03:07:47;93973.47;;;3.19;82.51
72308;BME280;60257;42.638;23.376;2023-11-18T03:10:16;93975.72;;;3.17;83.16
72308;BME280;60257;42.638;23.376;2023-11-18T03:12:51;93949.56;;;3.13;82.52
72308;BME280;60257;42.638;23.376;2023-11-18T03:15:21;93972.22;;;3.17;82.53
72308;BME280;60257;42.638;23.376;2023-11-18T03:17:48;93973.00;;;3.08;82.03
72308;BME280;60257;42.638;23.376;2023-11-18T03:20:19;93991.19;;;3.17;81.44
72308;BME280;60257;42.638;23.376;2023-11-18T03:22:48;93978.88;;;3.10;81.00
72308;BME280;60257;42.638;23.376;2023-11-18T03:25:14;93998.50;;;3.07;81.41
72308;BME280;60257;42.638;23.376;2023-11-18T03:27:40;94002.94;;;3.03;81.24
72308;BME280;60257;42.638;23.376;2023-11-18T03:30:07;94002.28;;;2.98;81.34
72308;BME280;60257;42.638;23.376;2023-11-18T03:32:34;94005.63;;;2.95;81.20
72308;BME280;60257;42.638;23.376;2023-11-18T03:35:02;93987.59;;;2.82;80.84
72308;BME280;60257;42.638;23.376;2023-11-18T03:37:27;94022.63;;;2.87;80.64
72308;BME280;60257;42.638;23.376;2023-11-18T03:39:53;93996.97;;;2.76;81.11
72308;BME280;60257;42.638;23.376;2023-11-18T03:42:18;93999.03;;;2.70;81.07
72308;BME280;60257;42.638;23.376;2023-11-18T03:44:44;94008.91;;;2.75;81.17
72308;BME280;60257;42.638;23.376;2023-11-18T03:47:14;94004.28;;;2.66;80.43
72308;BME280;60257;42.638;23.376;2023-11-18T03:49:40;94009.38;;;2.68;80.82
72308;BME280;60257;42.638;23.376;2023-11-18T03:52:06;93996.16;;;2.66;80.21
72308;BME280;60257;42.638;23.376;2023-11-18T03:54:31;93998.31;;;2.56;80.55
72308;BME280;60257;42.638;23.376;2023-11-18T03:56:57;94032.91;;;2.59;80.32
72308;BME280;60257;42.638;23.376;2023-11-18T03:59:22;94006.09;;;2.49;79.72
72308;BME280;60257;42.638;23.376;2023-11-18T04:01:48;94026.94;;;2.48;80.78
72308;BME280;60257;42.638;23.376;2023-11-18T04:04:16;94017.53;;;2.37;80.50
72308;BME280;60257;42.638;23.376;2023-11-18T04:06:42;94004.91;;;2.32;79.95
72308;BME280;60257;42.638;23.376;2023-11-18T04:09:07;94011.75;;;2.30;80.25
72308;BME280;60257;42.638;23.376;2023-11-18T04:11:34;94008.06;;;2.26;80.53
72308;BME280;60257;42.638;23.376;2023-11-18T04:14:00;94017.63;;;2.23;80.52
72308;BME280;60257;42.638;23.376;2023-11-18T04:16:25;94023.38;;;2.30;80.55
72308;BME280;60257;42.638;23.376;2023-11-18T04:18:51;94009.63;;;2.18;79.99
72308;BME280;60257;42.638;23.376;2023-11-18T04:21:16;94035.25;;;2.21;79.58
72308;BME280;60257;42.638;23.376;2023-11-18T04:23:43;94036.72;;;2.27;79.90
72308;BME280;60257;42.638;23.376;2023-11-18T04:26:09;94028.75;;;2.22;79.72
72308;BME280;60257;42.638;23.376;2023-11-18T04:28:35;94037.97;;;2.21;79.78
72308;BME280;60257;42.638;23.376;2023-11-18T04:31:01;94040.97;;;2.19;79.45
72308;BME280;60257;42.638;23.376;2023-11-18T04:33:27;94019.34;;;2.19;79.15
72308;BME280;60257;42.638;23.376;2023-11-18T04:35:55;94048.50;;;2.22;78.99
72308;BME280;60257;42.638;23.376;2023-11-18T04:38:24;94054.19;;;2.21;78.71
72308;BME280;60257;42.638;23.376;2023-11-18T04:40:53;94039.47;;;2.36;79.74
72308;BME280;60257;42.638;23.376;2023-11-18T04:43:22;94039.28;;;2.23;78.29
72308;BME280;60257;42.638;23.376;2023-11-18T04:45:48;94044.53;;;2.28;78.05
72308;BME280;60257;42.638;23.376;2023-11-18T04:48:14;94052.97;;;2.27;78.86
72308;BME280;60257;42.638;23.376;2023-11-18T04:50:41;94055.66;;;2.27;77.94
72308;BME280;60257;42.638;23.376;2023-11-18T04:53:07;94042.81;;;2.10;78.35
72308;BME280;60257;42.638;23.376;2023-11-18T04:55:38;94056.53;;;2.14;78.24
72308;BME280;60257;42.638;23.376;2023-11-18T04:58:04;94052.75;;;2.15;78.63
72308;BME280;60257;42.638;23.376;2023-11-18T05:00:37;94039.97;;;2.07;78.28
72308;BME280;60257;42.638;23.376;2023-11-18T05:03:07;94044.88;;;2.05;78.69
72308;BME280;60257;42.638;23.376;2023-11-18T05:05:39;94056.34;;;2.10;77.71
72308;BME280;60257;42.638;23.376;2023-11-18T05:08:06;94033.63;;;2.11;77.80
72308;BME280;60257;42.638;23.376;2023-11-18T05:10:33;94037.25;;;2.07;78.21
72308;BME280;60257;42.638;23.376;2023-11-18T05:12:59;94044.72;;;2.01;78.16
72308;BME280;60257;42.638;23.376;2023-11-18T05:15:24;94037.56;;;2.05;78.01
72308;BME280;60257;42.638;23.376;2023-11-18T05:17:54;94041.06;;;2.06;78.21
72308;BME280;60257;42.638;23.376;2023-11-18T05:20:20;94054.88;;;2.04;77.73
72308;BME280;60257;42.638;23.376;2023-11-18T05:22:46;94037.25;;;2.07;78.17
72308;BME280;60257;42.638;23.376;2023-11-18T05:25:11;94029.16;;;2.07;77.31
72308;BME280;60257;42.638;23.376;2023-11-18T05:27:37;94027.69;;;2.09;77.13
72308;BME280;60257;42.638;23.376;2023-11-18T05:30:06;94013.88;;;2.11;76.62
72308;BME280;60257;42.638;23.376;2023-11-18T05:32:32;94017.03;;;2.04;77.30
72308;BME280;60257;42.638;23.376;2023-11-18T05:34:58;94022.94;;;2.06;77.63
72308;BME280;60257;42.638;23.376;2023-11-18T05:37:24;94017.16;;;1.99;76.67
72308;BME280;60257;42.638;23.376;2023-11-18T05:39:50;94047.56;;;2.05;77.11
72308;BME280;60257;42.638;23.376;2023-11-18T05:42:27;94003.34;;;2.01;76.92
72308;BME280;60257;42.638;23.376;2023-11-18T05:44:53;94016.53;;;2.02;76.59
72308;BME280;60257;42.638;23.376;2023-11-18T05:47:24;94034.84;;;2.05;76.35
72308;BME280;60257;42.638;23.376;2023-11-18T05:49:51;94026.44;;;2.07;77.54
72308;BME280;60257;42.638;23.376;2023-11-18T05:52:17;94019.88;;;1.99;75.73
72308;BME280;60257;42.638;23.376;2023-11-18T05:54:42;94009.78;;;1.91;75.68
72308;BME280;60257;42.638;23.376;2023-11-18T05:57:07;94018.06;;;1.94;76.16
72308;BME280;60257;42.638;23.376;2023-11-18T05:59:33;94019.38;;;1.97;76.13
72308;BME280;60257;42.638;23.376;2023-11-18T06:01:58;94015.72;;;2.02;76.58
72308;BME280;60257;42.638;23.376;2023-11-18T06:04:24;94014.97;;;2.01;76.61
72308;BME280;60257;42.638;23.376;2023-11-18T06:06:50;94008.41;;;2.02;76.62
72308;BME280;60257;42.638;23.376;2023-11-18T06:09:17;94019.13;;;2.07;76.88
72308;BME280;60257;42.638;23.376;2023-11-18T06:11:47;94013.81;;;2.02;75.91
72308;BME280;60257;42.638;23.376;2023-11-18T06:14:12;94026.50;;;2.15;76.03
72308;BME280;60257;42.638;23.376;2023-11-18T06:16:38;94020.75;;;2.17;76.14
72308;BME280;60257;42.638;23.376;2023-11-18T06:19:05;94048.00;;;2.20;75.72
72308;BME280;60257;42.638;23.376;2023-11-18T06:21:31;94064.09;;;2.03;75.62
72308;BME280;60257;42.638;23.376;2023-11-18T06:23:58;94049.78;;;2.03;76.49
72308;BME280;60257;42.638;23.376;2023-11-18T06:26:24;94078.69;;;1.93;76.86
72308;BME280;60257;42.638;23.376;2023-11-18T06:28:54;94059.44;;;1.95;77.50
72308;BME280;60257;42.638;23.376;2023-11-18T06:31:20;94044.81;;;1.96;78.14
72308;BME280;60257;42.638;23.376;2023-11-18T06:33:47;94049.41;;;1.96;77.48
72308;BME280;60257;42.638;23.376;2023-11-18T06:38:51;94044.25;;;2.08;77.62
72308;BME280;60257;42.638;23.376;2023-11-18T06:41:18;94060.78;;;2.06;77.16
72308;BME280;60257;42.638;23.376;2023-11-18T06:43:45;94052.53;;;2.11;77.04
72308;BME280;60257;42.638;23.376;2023-11-18T06:46:33;94041.22;;;2.09;76.79
72308;BME280;60257;42.638;23.376;2023-11-18T06:49:00;94055.56;;;2.10;76.46
72308;BME280;60257;42.638;23.376;2023-11-18T06:51:30;94064.34;;;2.15;76.15
72308;BME280;60257;42.638;23.376;2023-11-18T06:53:57;94069.19;;;2.27;76.08
72308;BME280;60257;42.638;23.376;2023-11-18T06:56:27;94074.44;;;2.23;74.83
72308;BME280;60257;42.638;23.376;2023-11-18T06:58:53;94068.09;;;2.28;75.21
72308;BME280;60257;42.638;23.376;2023-11-18T07:01:20;94061.72;;;2.32;74.17
72308;BME280;60257;42.638;23.376;2023-11-18T07:03:47;94078.41;;;2.26;73.88
72308;BME280;60257;42.638;23.376;2023-11-18T07:06:19;94087.03;;;2.28;73.64
72308;BME280;60257;42.638;23.376;2023-11-18T07:08:49;94079.22;;;2.26;73.90
72308;BME280;60257;42.638;23.376;2023-11-18T07:11:15;94083.38;;;2.32;73.71
72308;BME280;60257;42.638;23.376;2023-11-18T07:13:42;94066.03;;;2.33;73.79
72308;BME280;60257;42.638;23.376;2023-11-18T07:16:07;94059.56;;;2.43;73.64
72308;BME280;60257;42.638;23.376;2023-11-18T07:18:35;94077.22;;;2.41;73.63
72308;BME280;60257;42.638;23.376;2023-11-18T07:21:00;94072.25;;;2.34;72.84
72308;BME280;60257;42.638;23.376;2023-11-18T07:23:26;94087.22;;;2.31;73.58
72308;BME280;60257;42.638;23.376;2023-11-18T07:25:52;94074.00;;;2.30;73.68
72308;BME280;60257;42.638;23.376;2023-11-18T07:28:18;94063.47;;;2.28;74.03
72308;BME280;60257;42.638;23.376;2023-11-18T07:30:44;94081.38;;;2.38;74.67
72308;BME280;60257;42.638;23.376;2023-11-18T07:33:15;94083.38;;;2.32;74.69
72308;BME280;60257;42.638;23.376;2023-11-18T07:35:41;94074.50;;;2.32;74.94
72308;BME280;60257;42.638;23.376;2023-11-18T07:38:07;94068.94;;;2.37;74.77
72308;BME280;60257;42.638;23.376;2023-11-18T07:40:33;94078.03;;;2.41;74.91
72308;BME280;60257;42.638;23.376;2023-11-18T07:42:59;94079.88;;;2.54;77.10
72308;BME280;60257;42.638;23.376;2023-11-18T07:45:27;94060.56;;;2.47;74.15
72308;BME280;60257;42.638;23.376;2023-11-18T07:47:54;94070.25;;;2.48;74.16
72308;BME280;60257;42.638;23.376;2023-11-18T07:50:20;94081.16;;;2.35;73.61
72308;BME280;60257;42.638;23.376;2023-11-18T07:52:47;94085.84;;;2.43;73.98
72308;BME280;60257;42.638;23.376;2023-11-18T07:55:16;94084.38;;;2.37;74.31
72308;BME280;60257;42.638;23.376;2023-11-18T07:57:41;94080.72;;;2.41;75.01
72308;BME280;60257;42.638;23.376;2023-11-18T08:00:08;94062.38;;;2.29;74.01
72308;BME280;60257;42.638;23.376;2023-11-18T08:02:37;94099.88;;;2.22;74.51
72308;BME280;60257;42.638;23.376;2023-11-18T08:05:06;94110.41;;;2.24;74.72
72308;BME280;60257;42.638;23.376;2023-11-18T08:07:38;94097.84;;;2.28;75.33
72308;BME280;60257;42.638;23.376;2023-11-18T08:10:05;94108.66;;;2.28;75.34
72308;BME280;60257;42.638;23.376;2023-11-18T08:12:32;94082.84;;;2.22;73.78
72308;BME280;60257;42.638;23.376;2023-11-18T08:14:57;94090.47;;;2.20;74.28
72308;BME280;60257;42.638;23.376;2023-11-18T08:17:26;94098.59;;;2.20;73.71
72308;BME280;60257;42.638;23.376;2023-11-18T08:19:52;94105.22;;;2.14;73.73
72308;BME280;60257;42.638;23.376;2023-11-18T08:22:19;94098.72;;;2.15;73.78
72308;BME280;60257;42.638;23.376;2023-11-18T08:24:46;94083.28;;;2.15;73.59
72308;BME280;60257;42.638;23.376;2023-11-18T08:27:11;94075.69;;;2.26;73.25
72308;BME280;60257;42.638;23.376;2023-11-18T08:29:37;94123.59;;;2.25;73.41
72308;BME280;60257;42.638;23.376;2023-11-18T08:32:05;94078.91;;;2.28;73.01
72308;BME280;60257;42.638;23.376;2023-11-18T08:34:31;94092.28;;;2.24;72.92
72308;BME280;60257;42.638;23.376;2023-11-18T08:36:58;94098.50;;;2.33;72.62
72308;BME280;60257;42.638;23.376;2023-11-18T08:39:25;94094.41;;;2.36;72.75
72308;BME280;60257;42.638;23.376;2023-11-18T08:41:51;94080.56;;;2.38;72.41
72308;BME280;60257;42.638;23.376;2023-11-18T08:44:16;94085.53;;;2.44;72.40
72308;BME280;60257;42.638;23.376;2023-11-18T08:46:43;94074.41;;;2.46;72.60
72308;BME280;60257;42.638;23.376;2023-11-18T08:49:08;94076.31;;;2.45;73.39
72308;BME280;60257;42.638;23.376;2023-11-18T08:51:36;94085.94;;;2.60;72.36
72308;BME280;60257;42.638;23.376;2023-11-18T08:54:02;94089.47;;;2.69;73.52
72308;BME280;60257;42.638;23.376;2023-11-18T08:56:42;94090.13;;;2.75;73.26
72308;BME280;60257;42.638;23.376;2023-11-18T08:59:09;94101.06;;;2.61;71.81
72308;BME280;60257;42.638;23.376;2023-11-18T09:01:34;94081.81;;;2.31;72.18
72308;BME280;60257;42.638;23.376;2023-11-18T09:04:00;94086.72;;;2.29;72.18
72308;BME280;60257;42.638;23.376;2023-11-18T09:06:26;94103.38;;;2.45;72.75
72308;BME280;60257;42.638;23.376;2023-11-18T09:08:53;94098.25;;;2.44;72.89
72308;BME280;60257;42.638;23.376;2023-11-18T09:11:20;94062.53;;;2.33;72.20
72308;BME280;60257;42.638;23.376;2023-11-18T09:13:48;94097.53;;;2.29;72.33
72308;BME280;60257;42.638;23.376;2023-11-18T09:16:15;94082.72;;;2.27;72.49
72308;BME280;60257;42.638;23.376;2023-11-18T09:18:42;94101.84;;;2.30;72.55
72308;BME280;60257;42.638;23.376;2023-11-18T09:21:11;94085.31;;;2.32;72.91
72308;BME280;60257;42.638;23.376;2023-11-18T09:23:41;94079.47;;;2.39;73.02
72308;BME280;60257;42.638;23.376;2023-11-18T09:26:07;94078.72;;;2.47;72.52
72308;BME280;60257;42.638;23.376;2023-11-18T09:28:34;94089.66;;;2.42;72.35
72308;BME280;60257;42.638;23.376;2023-11-18T09:31:06;94077.41;;;2.44;72.90
72308;BME280;60257;42.638;23.376;2023-11-18T09:33:37;94074.56;;;2.49;71.79
72308;BME280;60257;42.638;23.376;2023-11-18T09:36:06;94081.31;;;2.60;72.21
72308;BME280;60257;42.638;23.376;2023-11-18T09:38:37;94069.53;;;2.65;71.91
72308;BME280;60257;42.638;23.376;2023-11-18T09:41:04;94093.28;;;2.68;71.95
72308;BME280;60257;42.638;23.376;2023-11-18T09:43:39;94071.59;;;2.59;71.81
72308;BME280;60257;42.638;23.376;2023-11-18T09:46:28;94057.59;;;2.66;71.91
72308;BME280;60257;42.638;23.376;2023-11-18T09:49:07;94069.38;;;2.61;71.27
72308;BME280;60257;42.638;23.376;2023-11-18T09:51:42;94058.44;;;2.75;71.34
72308;BME280;60257;42.638;23.376;2023-11-18T09:57:38;94055.88;;;2.70;71.15
72308;BME280;60257;42.638;23.376;2023-11-18T10:00:05;94071.63;;;2.68;71.31
72308;BME280;60257;42.638;23.376;2023-11-18T10:02:53;94045.91;;;2.48;71.06
72308;BME280;60257;42.638;23.376;2023-11-18T10:05:21;94070.03;;;2.67;70.98
72308;BME280;60257;42.638;23.376;2023-11-18T10:07:48;94067.94;;;2.64;71.32
72308;BME280;60257;42.638;23.376;2023-11-18T10:10:14;94069.38;;;2.61;70.50
72308;BME280;60257;42.638;23.376;2023-11-18T10:12:44;94085.94;;;2.60;71.06
72308;BME280;60257;42.638;23.376;2023-11-18T10:15:14;94098.06;;;2.40;70.71
72308;BME280;60257;42.638;23.376;2023-11-18T10:17:44;94078.88;;;2.50;70.96
72308;BME280;60257;42.638;23.376;2023-11-18T10:20:48;94087.28;;;2.49;71.30
72308;BME280;60257;42.638;23.376;2023-11-18T10:23:17;94090.81;;;2.49;71.18
72308;BME280;60257;42.638;23.376;2023-11-18T10:25:51;94073.91;;;2.44;71.24
72308;BME280;60257;42.638;23.376;2023-11-18T10:28:25;94065.47;;;2.45;70.57
72308;BME280;60257;42.638;23.376;2023-11-18T10:30:56;94085.28;;;2.54;71.03
72308;BME280;60257;42.638;23.376;2023-11-18T10:33:37;94074.25;;;2.51;70.54
72308;BME280;60257;42.638;23.376;2023-11-18T10:36:04;94073.47;;;2.50;70.65
72308;BME280;60257;42.638;23.376;2023-11-18T10:38:31;94063.94;;;2.53;70.38
72308;BME280;60257;42.638;23.376;2023-11-18T10:40:58;94050.78;;;2.68;70.21
72308;BME280;60257;42.638;23.376;2023-11-18T10:43:26;94028.50;;;2.80;69.10
72308;BME280;60257;42.638;23.376;2023-11-18T10:46:10;94054.13;;;2.74;69.09
72308;BME280;60257;42.638;23.376;2023-11-18T10:51:12;94024.97;;;2.71;68.98
72308;BME280;60257;42.638;23.376;2023-11-18T10:53:49;94043.00;;;2.76;69.05
72308;BME280;60257;42.638;23.376;2023-11-18T10:56:24;94059.78;;;2.86;69.09
72308;BME280;60257;42.638;23.376;2023-11-18T10:59:04;94030.13;;;2.81;68.41
72308;BME280;60257;42.638;23.376;2023-11-18T11:01:32;94008.03;;;3.05;68.33
72308;BME280;60257;42.638;23.376;2023-11-18T11:03:59;93985.28;;;3.15;67.67
72308;BME280;60257;42.638;23.376;2023-11-18T11:06:25;94019.50;;;3.10;67.42
72308;BME280;60257;42.638;23.376;2023-11-18T11:08:52;94012.19;;;3.20;67.16
72308;BME280;60257;42.638;23.376;2023-11-18T11:11:20;94006.81;;;3.28;67.23
72308;BME280;60257;42.638;23.376;2023-11-18T11:13:57;94006.81;;;3.45;66.48
72308;BME280;60257;42.638;23.376;2023-11-18T11:16:35;94035.06;;;3.62;66.17
72308;BME280;60257;42.638;23.376;2023-11-18T11:19:04;94011.59;;;3.74;66.80
72308;BME280;60257;42.638;23.376;2023-11-18T11:21:37;94043.03;;;3.75;66.26
72308;BME280;60257;42.638;23.376;2023-11-18T11:24:20;94050.03;;;3.51;66.38
72308;BME280;60257;42.638;23.376;2023-11-18T11:27:17;94028.78;;;3.27;66.74
72308;BME280;60257;42.638;23.376;2023-11-18T11:29:59;94034.53;;;3.25;66.60
72308;BME280;60257;42.638;23.376;2023-11-18T11:32:39;94034.38;;;3.30;66.88
72308;BME280;60257;42.638;23.376;2023-11-18T11:35:18;94036.88;;;3.01;66.79
72308;BME280;60257;42.638;23.376;2023-11-18T11:37:47;94058.56;;;3.09;67.68
72308;BME280;60257;42.638;23.376;2023-11-18T11:40:14;94007.22;;;3.04;67.24
72308;BME280;60257;42.638;23.376;2023-11-18T11:42:48;94040.56;;;3.14;68.25
72308;BME280;60257;42.638;23.376;2023-11-18T11:45:22;94049.19;;;3.16;67.77
72308;BME280;60257;42.638;23.376;2023-11-18T11:47:51;94054.59;;;3.16;68.20
72308;BME280;60257;42.638;23.376;2023-11-18T11:50:22;94039.47;;;3.15;67.75
72308;BME280;60257;42.638;23.376;2023-11-18T11:53:05;94073.69;;;3.10;67.78
72308;BME280;60257;42.638;23.376;2023-11-18T11:55:41;94053.72;;;2.89;68.04
72308;BME280;60257;42.638;23.376;2023-11-18T11:58:26;94048.19;;;3.12;68.10
72308;BME280;60257;42.638;23.376;2023-11-18T12:00:52;94038.03;;;3.17;68.02
72308;BME280;60257;42.638;23.376;2023-11-18T12:03:21;94032.16;;;3.24;67.87
72308;BME280;60257;42.638;23.376;2023-11-18T12:05:49;94035.31;;;3.26;67.76
72308;BME280;60257;42.638;23.376;2023-11-18T12:08:17;94045.50;;;3.12;67.45
72308;BME280;60257;42.638;23.376;2023-11-18T12:10:51;94030.56;;;3.23;67.42
72308;BME280;60257;42.638;23.376;2023-11-18T12:13:18;94049.03;;;3.21;67.40
72308;BME280;60257;42.638;23.376;2023-11-18T12:15:52;94062.13;;;3.36;67.53
72308;BME280;60257;42.638;23.376;2023-11-18T12:18:29;94020.84;;;3.39;67.40
72308;BME280;60257;42.638;23.376;2023-11-18T12:20:57;94068.66;;;3.35;67.05
72308;BME280;60257;42.638;23.376;2023-11-18T12:23:27;94071.19;;;3.23;67.04
72308;BME280;60257;42.638;23.376;2023-11-18T12:25:54;94070.19;;;3.10;67.85
72308;BME280;60257;42.638;23.376;2023-11-18T12:28:40;94045.16;;;3.04;67.86
72308;BME280;60257;42.638;23.376;2023-11-18T12:31:10;94084.56;;;3.19;67.89
72308;BME280;60257;42.638;23.376;2023-11-18T12:34:01;94061.13;;;3.15;67.51
72308;BME280;60257;42.638;23.376;2023-11-18T12:41:38;94094.84;;;2.91;68.17
72308;BME280;60257;42.638;23.376;2023-11-18T12:44:30;94059.91;;;2.81;68.67
72308;BME280;60257;42.638;23.376;2023-11-18T12:47:01;94062.06;;;3.01;69.32
72308;BME280;60257;42.638;23.376;2023-11-18T12:49:47;94062.06;;;3.01;69.33
72308;BME280;60257;42.638;23.376;2023-11-18T12:52:20;94061.91;;;3.06;69.02
72308;BME280;60257;42.638;23.376;2023-11-18T12:54:47;94074.94;;;2.96;69.17
72308;BME280;60257;42.638;23.376;2023-11-18T12:57:26;94045.75;;;2.84;69.26
72308;BME280;60257;42.638;23.376;2023-11-18T12:59:57;94066.69;;;3.01;69.54
72308;BME280;60257;42.638;23.376;2023-11-18T13:02:22;94052.97;;;3.06;69.27
72308;BME280;60257;42.638;23.376;2023-11-18T13:04:51;94105.31;;;3.24;68.73
72308;BME280;60257;42.638;23.376;2023-11-18T13:07:19;94070.22;;;3.19;68.29
72308;BME280;60257;42.638;23.376;2023-11-18T13:09:46;94064.81;;;3.27;68.80
72308;BME280;60257;42.638;23.376;2023-11-18T13:12:13;94084.59;;;3.36;68.63
72308;BME280;60257;42.638;23.376;2023-11-18T13:14:45;94076.16;;;3.29;68.11
72308;BME280;60257;42.638;23.376;2023-11-18T13:17:17;94080.09;;;3.15;68.73
72308;BME280;60257;42.638;23.376;2023-11-18T13:19:43;94079.63;;;3.21;68.87
72308;BME280;60257;42.638;23.376;2023-11-18T13:22:11;94093.13;;;3.04;68.93
72308;BME280;60257;42.638;23.376;2023-11-18T13:24:41;94095.06;;;3.12;69.27